Time;durP1;ratioP1;P1;durP2;ratioP2;P2;SDS_P1;SDS_P2;PMS_P1;PMS_P2;Temp;Humidity;BMP_temperature;BMP_pressure;BME280_temperature;BME280_humidity;BME280_pressure;Samples;Min_cycle;Max_cycle;Signal;HPM_P1;HPM_P2
2021/10/27 00:01:56;;;;;;;12.57;7.90;;;;;;;3.54;100.00;97561.38;5009850;28;20117;-63
2021/10/27 00:04:22;;;;;;;13.23;7.15;;;;;;;3.58;100.00;97570.50;4997968;28;20144;-63
2021/10/27 00:06:48;;;;;;;9.73;6.78;;;;;;;3.59;100.00;97575.63;4994458;28;20049;-64
2021/10/27 00:09:14;;;;;;;10.65;6.68;;;;;;;3.57;100.00;97572.41;4995364;28;20038;-61
2021/10/27 00:11:39;;;;;;;12.15;7.18;;;;;;;3.60;100.00;97574.53;4996966;28;20372;-62
2021/10/27 00:14:05;;;;;;;13.10;7.30;;;;;;;3.68;100.00;97573.03;4990140;28;20136;-63
2021/10/27 00:16:31;;;;;;;10.13;7.15;;;;;;;3.70;100.00;97572.72;4987347;28;20495;-61
2021/10/27 00:18:57;;;;;;;11.15;7.32;;;;;;;3.68;100.00;97572.22;4989363;28;20034;-61
2021/10/27 00:21:22;;;;;;;9.38;7.00;;;;;;;3.57;100.00;97569.72;4982720;28;20523;-59
2021/10/27 00:23:48;;;;;;;15.02;7.75;;;;;;;3.62;100.00;97566.91;4989989;28;20042;-61
2021/10/27 00:26:13;;;;;;;11.65;7.75;;;;;;;3.58;100.00;97565.09;4962063;28;20102;-62
2021/10/27 00:28:39;;;;;;;14.18;7.85;;;;;;;3.59;100.00;97566.72;4989055;28;20042;-59
2021/10/27 00:31:05;;;;;;;11.20;7.38;;;;;;;3.57;100.00;97556.16;4983703;28;20770;-62
2021/10/27 00:33:30;;;;;;;12.80;7.28;;;;;;;3.59;100.00;97564.00;4999482;28;20347;-60
2021/10/27 00:35:55;;;;;;;11.77;7.80;;;;;;;3.60;100.00;97557.47;5000218;28;20042;-60
2021/10/27 00:38:21;;;;;;;9.40;7.32;;;;;;;3.53;100.00;97552.47;4985456;28;20093;-61
2021/10/27 00:40:47;;;;;;;12.57;7.82;;;;;;;3.51;100.00;97561.97;4998429;28;20118;-60
2021/10/27 00:43:13;;;;;;;11.23;7.15;;;;;;;3.28;100.00;97558.31;5021305;28;20037;-62
2021/10/27 00:45:38;;;;;;;17.63;9.95;;;;;;;2.98;100.00;97560.47;5001608;28;20042;-61
2021/10/27 00:48:04;;;;;;;13.50;8.50;;;;;;;3.01;100.00;97562.59;4989291;28;20045;-62
2021/10/27 00:50:31;;;;;;;12.60;7.63;;;;;;;3.14;100.00;97558.31;5003191;28;20386;-61
2021/10/27 00:52:56;;;;;;;12.23;8.52;;;;;;;3.35;100.00;97562.25;4991568;28;20045;-61
2021/10/27 00:55:23;;;;;;;13.18;8.68;;;;;;;3.50;100.00;97565.78;4988272;28;20790;-59
2021/10/27 00:57:49;;;;;;;12.75;8.23;;;;;;;3.83;100.00;97574.63;4990829;28;20133;-63
2021/10/27 01:00:14;;;;;;;12.30;8.05;;;;;;;3.87;100.00;97572.13;4984552;28;20034;-62
2021/10/27 01:02:41;;;;;;;13.82;9.25;;;;;;;4.07;100.00;97562.78;4993866;28;20042;-61
2021/10/27 01:05:08;;;;;;;13.70;8.07;;;;;;;4.16;100.00;97569.09;4987409;28;20124;-61
2021/10/27 01:07:34;;;;;;;15.30;8.82;;;;;;;4.21;100.00;97563.56;4991897;28;20522;-61
2021/10/27 01:10:00;;;;;;;12.38;8.25;;;;;;;4.17;100.00;97568.78;4980236;28;20119;-60
2021/10/27 01:12:25;;;;;;;14.57;7.90;;;;;;;4.18;100.00;97564.19;5005368;28;20050;-60
2021/10/27 01:14:51;;;;;;;12.18;7.78;;;;;;;4.22;100.00;97567.88;4995048;28;20061;-60
2021/10/27 01:17:18;;;;;;;12.48;7.53;;;;;;;4.24;100.00;97564.88;4986313;28;20125;-60
2021/10/27 01:19:45;;;;;;;10.75;7.28;;;;;;;4.24;100.00;97565.66;4991439;28;20500;-62
2021/10/27 01:22:14;;;;;;;12.27;7.78;;;;;;;4.24;100.00;97559.47;4983628;28;20703;-62
2021/10/27 01:24:40;;;;;;;;;;;;;;;4.16;100.00;97556.34;4992460;28;20065;-62
2021/10/27 01:27:05;;;;;;;13.00;7.38;;;;;;;4.04;100.00;97561.47;4986693;28;19914;-64
2021/10/27 01:29:31;;;;;;;11.40;7.07;;;;;;;3.71;100.00;97560.78;4990641;28;20049;-61
2021/10/27 01:31:57;;;;;;;9.60;7.18;;;;;;;3.81;100.00;97558.66;4991286;28;20586;-62
2021/10/27 01:34:23;;;;;;;12.32;7.70;;;;;;;3.77;100.00;97552.25;4986141;28;20456;-61
2021/10/27 01:36:49;;;;;;;11.30;7.70;;;;;;;3.75;100.00;97551.75;4986169;28;20053;-61
2021/10/27 01:39:14;;;;;;;11.93;7.95;;;;;;;3.70;100.00;97557.28;4987126;28;20034;-60
2021/10/27 01:41:39;;;;;;;12.35;8.07;;;;;;;3.63;100.00;97548.75;4990920;28;20419;-61
2021/10/27 01:44:05;;;;;;;12.18;7.72;;;;;;;3.61;100.00;97550.94;4987029;28;20029;-62
2021/10/27 01:46:31;;;;;;;12.50;7.78;;;;;;;3.53;100.00;97557.88;4990719;28;20539;-61
2021/10/27 01:48:58;;;;;;;11.48;7.63;;;;;;;3.44;100.00;97552.34;4992335;28;20030;-61
2021/10/27 01:51:26;;;;;;;12.68;9.02;;;;;;;3.40;100.00;97554.06;4982064;28;20039;-61
2021/10/27 01:53:51;;;;;;;11.30;7.53;;;;;;;3.31;100.00;97544.97;4993065;28;20064;-60
2021/10/27 01:56:17;;;;;;;11.60;7.55;;;;;;;3.33;100.00;97545.53;4987178;28;20386;-61
2021/10/27 01:58:42;;;;;;;10.88;8.07;;;;;;;3.26;100.00;97547.81;4993969;28;20048;-61
2021/10/27 02:01:07;;;;;;;14.50;7.85;;;;;;;3.22;100.00;97541.38;4989340;28;20066;-59
2021/10/27 02:03:33;;;;;;;12.68;8.15;;;;;;;3.18;100.00;97538.44;4995071;28;20050;-61
2021/10/27 02:05:58;;;;;;;14.60;8.63;;;;;;;3.17;100.00;97544.97;5004373;28;20042;-60
2021/10/27 02:08:24;;;;;;;11.38;7.65;;;;;;;3.16;100.00;97542.56;4987365;28;20053;-60
2021/10/27 02:10:49;;;;;;;11.68;8.25;;;;;;;3.11;100.00;97539.94;4991879;28;20490;-61
2021/10/27 02:13:15;;;;;;;12.23;7.78;;;;;;;3.13;100.00;97537.75;4983085;28;20045;-58
2021/10/27 02:15:42;;;;;;;12.77;8.13;;;;;;;3.08;100.00;97545.94;4990501;28;20038;-61
2021/10/27 02:18:07;;;;;;;12.02;8.07;;;;;;;2.75;100.00;97546.75;5001171;28;20068;-63
2021/10/27 02:20:33;;;;;;;12.32;8.20;;;;;;;2.62;100.00;97545.59;5007399;28;20085;-62
2021/10/27 02:22:59;;;;;;;15.65;8.43;;;;;;;2.67;100.00;97542.81;5005188;28;20046;-65
2021/10/27 02:25:24;;;;;;;12.63;8.25;;;;;;;2.68;100.00;97538.19;4998367;28;20038;-61
2021/10/27 02:27:50;;;;;;;14.88;8.65;;;;;;;2.70;100.00;97535.19;5003780;28;20084;-62
2021/10/27 02:30:15;;;;;;;13.30;8.75;;;;;;;2.44;100.00;97530.19;4994038;28;20062;-63
2021/10/27 02:32:41;;;;;;;13.38;8.60;;;;;;;2.46;100.00;97545.00;4996572;28;20069;-62
2021/10/27 02:35:07;;;;;;;14.77;8.95;;;;;;;2.68;100.00;97547.13;4997776;28;20049;-60
2021/10/27 02:37:32;;;;;;;16.65;9.05;;;;;;;2.65;100.00;97542.31;5000401;28;20105;-62
2021/10/27 02:39:58;;;;;;;16.10;9.65;;;;;;;2.73;100.00;97534.63;5001348;28;20057;-61
2021/10/27 02:42:23;;;;;;;13.57;9.55;;;;;;;2.83;100.00;97531.75;5001593;28;20050;-61
2021/10/27 02:44:49;;;;;;;17.92;9.35;;;;;;;2.83;100.00;97534.47;5009078;28;20133;-63
2021/10/27 02:47:14;;;;;;;15.57;9.45;;;;;;;2.85;100.00;97530.34;4998176;28;20073;-63
2021/10/27 02:49:39;;;;;;;15.00;9.10;;;;;;;2.85;100.00;97530.34;4992763;28;20049;-61
2021/10/27 02:52:05;;;;;;;14.18;9.07;;;;;;;2.82;100.00;97536.34;4980411;28;20558;-59
2021/10/27 02:54:31;;;;;;;14.75;9.45;;;;;;;2.76;100.00;97537.53;4991434;28;20047;-58
2021/10/27 02:56:56;;;;;;;13.60;8.75;;;;;;;2.75;100.00;97535.13;4968589;28;20050;-60
2021/10/27 02:59:22;;;;;;;13.48;8.45;;;;;;;2.63;100.00;97541.81;4968194;28;20056;-59
2021/10/27 03:01:47;;;;;;;16.05;9.07;;;;;;;2.11;100.00;97527.41;4989385;28;20034;-61
2021/10/27 03:04:13;;;;;;;14.15;9.50;;;;;;;2.04;100.00;97530.47;4983606;28;20049;-60
2021/10/27 03:06:39;;;;;;;16.30;9.82;;;;;;;2.13;100.00;97527.91;4991544;28;20040;-60
2021/10/27 03:09:05;;;;;;;14.23;9.77;;;;;;;2.20;100.00;97535.69;4989292;28;20076;-60
2021/10/27 03:11:30;;;;;;;14.27;9.48;;;;;;;2.24;100.00;97539.41;4996181;28;20053;-62
2021/10/27 03:13:56;;;;;;;14.95;8.98;;;;;;;2.33;100.00;97537.66;4996866;28;21342;-61
2021/10/27 03:16:22;;;;;;;14.98;9.35;;;;;;;2.34;100.00;97544.66;4986929;28;20641;-63
2021/10/27 03:18:48;;;;;;;14.52;8.50;;;;;;;2.37;100.00;97538.66;4973920;28;20041;-60
2021/10/27 03:21:13;;;;;;;13.35;7.95;;;;;;;2.39;100.00;97544.56;4983889;28;20057;-60
2021/10/27 03:23:39;;;;;;;13.13;8.70;;;;;;;2.39;100.00;97546.47;4989077;28;20084;-61
2021/10/27 03:26:05;;;;;;;15.07;8.60;;;;;;;2.38;100.00;97542.19;4987378;28;20038;-61
2021/10/27 03:28:30;;;;;;;13.32;8.07;;;;;;;2.33;100.00;97551.16;4990969;28;20048;-61
2021/10/27 03:30:56;;;;;;;12.93;8.35;;;;;;;2.35;100.00;97550.88;4993113;28;20073;-62
2021/10/27 03:33:22;;;;;;;13.13;8.52;;;;;;;2.31;100.00;97556.06;4988996;28;20140;-64
2021/10/27 03:35:48;;;;;;;13.50;8.55;;;;;;;2.31;100.00;97556.06;5002764;28;20068;-62
2021/10/27 03:38:15;;;;;;;11.43;7.70;;;;;;;2.33;100.00;97556.56;4998587;28;20076;-62
2021/10/27 03:40:41;;;;;;;12.52;7.45;;;;;;;2.36;100.00;97556.00;4994685;28;20038;-61
2021/10/27 03:43:07;;;;;;;12.95;7.70;;;;;;;2.38;100.00;97558.41;4987128;28;20042;-60
2021/10/27 03:45:33;;;;;;;11.95;8.07;;;;;;;2.27;100.00;97555.84;4993092;28;20497;-59
2021/10/27 03:47:59;;;;;;;13.27;8.57;;;;;;;2.23;100.00;97559.41;4990622;28;20197;-61
2021/10/27 03:50:24;;;;;;;15.85;8.82;;;;;;;2.26;100.00;97564.22;4985573;28;20041;-61
2021/10/27 03:52:49;;;;;;;13.93;8.93;;;;;;;2.31;100.00;97563.38;4984636;28;20049;-60
2021/10/27 03:55:15;;;;;;;13.90;8.05;;;;;;;2.37;100.00;97560.28;4993545;28;20181;-62
2021/10/27 03:57:41;;;;;;;13.68;8.27;;;;;;;2.36;100.00;97560.56;5000575;28;20074;-62
2021/10/27 04:00:08;;;;;;;12.10;7.53;;;;;;;2.29;100.00;97556.34;4995565;28;20046;-62
2021/10/27 04:02:38;;;;;;;15.63;8.18;;;;;;;2.24;100.00;97569.13;4998757;28;20562;-61
2021/10/27 04:05:04;;;;;;;11.05;7.85;;;;;;;2.14;100.00;97561.94;4994737;28;20123;-60
2021/10/27 04:07:30;;;;;;;15.90;7.88;;;;;;;2.09;100.00;97560.13;4998723;28;20460;-60
2021/10/27 04:09:55;;;;;;;11.10;7.47;;;;;;;2.10;100.00;97575.22;4998562;28;20053;-60
2021/10/27 04:12:21;;;;;;;10.88;7.57;;;;;;;2.02;100.00;97565.09;4995222;28;20058;-60
2021/10/27 04:14:46;;;;;;;13.60;8.95;;;;;;;1.75;100.00;97560.28;5003887;28;20129;-60
2021/10/27 04:17:12;;;;;;;15.52;9.60;;;;;;;1.53;100.00;97566.19;4997880;28;20065;-61
2021/10/27 04:19:37;;;;;;;14.20;9.07;;;;;;;1.36;100.00;97563.94;5003631;28;20085;-60
2021/10/27 04:22:03;;;;;;;19.33;10.05;;;;;;;1.23;100.00;97565.41;4999941;28;20045;-62
2021/10/27 04:24:28;;;;;;;14.75;9.38;;;;;;;1.37;100.00;97565.56;5002302;28;20487;-59
2021/10/27 04:26:55;;;;;;;17.83;9.07;;;;;;;1.52;100.00;97580.78;5000420;28;20147;-59
2021/10/27 04:29:20;;;;;;;18.00;9.73;;;;;;;1.69;100.00;97569.53;5017117;28;20049;-59
2021/10/27 04:31:46;;;;;;;18.42;9.23;;;;;;;1.77;100.00;97566.19;5002661;28;20050;-61
2021/10/27 04:34:11;;;;;;;17.23;9.95;;;;;;;1.79;100.00;97569.41;4977618;28;20368;-60
2021/10/27 04:36:36;;;;;;;23.15;9.15;;;;;;;1.89;100.00;97561.19;4978999;28;20802;-60
2021/10/27 04:39:03;;;;;;;19.08;10.50;;;;;;;2.00;100.00;97567.28;4985277;28;20046;-60
2021/10/27 04:41:28;;;;;;;13.93;9.27;;;;;;;2.08;100.00;97569.31;4996465;28;20137;-61
2021/10/27 04:43:53;;;;;;;13.55;8.55;;;;;;;2.07;100.00;97572.31;4992180;28;20132;-62
2021/10/27 04:46:19;;;;;;;12.80;7.95;;;;;;;1.84;100.00;97571.25;4974938;28;20057;-61
2021/10/27 04:48:44;;;;;;;15.63;9.02;;;;;;;1.86;100.00;97571.78;5003499;28;20108;-62
2021/10/27 04:51:10;;;;;;;12.57;8.38;;;;;;;1.83;100.00;97573.13;4995572;28;20054;-62
2021/10/27 04:53:35;;;;;;;14.68;8.90;;;;;;;1.83;100.00;97569.63;5003108;28;20042;-59
2021/10/27 04:56:01;;;;;;;13.77;8.70;;;;;;;1.75;100.00;97573.78;5006769;28;20069;-64
2021/10/27 04:58:28;;;;;;;14.05;8.27;;;;;;;1.71;100.00;97581.66;5014016;28;20878;-62
2021/10/27 05:00:54;;;;;;;12.52;8.43;;;;;;;1.75;100.00;97581.06;5007080;28;20046;-62
2021/10/27 05:03:19;;;;;;;16.15;10.40;;;;;;;1.75;100.00;97578.38;4988797;28;20099;-60
2021/10/27 05:05:49;;;;;;;12.45;8.25;;;;;;;1.76;100.00;97586.19;5003891;28;20038;-59
2021/10/27 05:08:18;;;;;;;16.08;8.63;;;;;;;1.81;100.00;97586.13;5008229;28;20128;-63
2021/10/27 05:10:43;;;;;;;13.18;8.30;;;;;;;1.79;100.00;97590.22;5009865;28;20519;-62
2021/10/27 05:13:09;;;;;;;12.70;8.00;;;;;;;1.83;100.00;97588.53;5004899;28;20061;-63
2021/10/27 05:15:35;;;;;;;12.88;8.60;;;;;;;1.79;100.00;97591.03;5001641;28;20056;-61
2021/10/27 05:18:00;;;;;;;11.38;7.47;;;;;;;1.76;100.00;97586.19;5002073;28;20041;-59
2021/10/27 05:20:26;;;;;;;14.93;8.43;;;;;;;1.72;100.00;97595.97;4989245;28;20076;-58
2021/10/27 05:22:51;;;;;;;13.82;7.80;;;;;;;1.66;100.00;97600.63;4992555;28;20136;-62
2021/10/27 05:25:17;;;;;;;12.77;7.97;;;;;;;1.63;100.00;97597.69;5005718;28;20053;-61
2021/10/27 05:27:42;;;;;;;15.05;8.90;;;;;;;1.61;100.00;97597.16;5027025;28;20042;-64
2021/10/27 05:30:08;;;;;;;13.20;7.78;;;;;;;1.67;100.00;97602.22;4991511;28;20040;-59
2021/10/27 05:32:33;;;;;;;13.95;7.90;;;;;;;1.58;100.00;97603.94;5002040;28;20065;-61
2021/10/27 05:34:59;;;;;;;17.30;8.90;;;;;;;1.64;100.00;97604.69;5003121;28;20042;-62
2021/10/27 05:37:24;;;;;;;11.88;7.75;;;;;;;1.70;100.00;97606.25;4998428;28;20049;-61
2021/10/27 05:39:50;;;;;;;9.65;7.07;;;;;;;1.76;100.00;97613.19;5002799;28;20136;-62
2021/10/27 05:42:20;;;;;;;19.60;8.45;;;;;;;1.82;100.00;97612.06;4995857;28;20056;-60
2021/10/27 05:44:47;;;;;;;14.88;7.43;;;;;;;1.79;100.00;97614.53;5002898;28;20495;-62
2021/10/27 05:47:13;;;;;;;13.90;7.93;;;;;;;1.78;100.00;97608.31;4995035;28;20050;-60
2021/10/27 05:49:50;;;;;;;10.93;7.72;;;;;;;1.77;100.00;97612.13;4991039;28;20042;-63
2021/10/27 05:55:06;;;;;;;13.70;8.32;;;;;;;1.76;100.00;97610.50;4998886;28;20045;-61
2021/10/27 05:57:39;;;;;;;9.93;7.63;;;;;;;1.76;100.00;97615.09;5001723;28;20046;-63
2021/10/27 06:00:09;;;;;;;10.57;6.95;;;;;;;1.70;100.00;97615.16;4997977;28;20054;-60
2021/10/27 06:02:34;;;;;;;11.65;7.32;;;;;;;1.67;100.00;97613.00;5000796;28;20040;-62
2021/10/27 06:05:00;;;;;;;13.20;9.13;;;;;;;1.65;100.00;97617.91;5002521;28;20042;-60
2021/10/27 06:07:26;;;;;;;15.88;9.05;;;;;;;1.30;100.00;97621.75;4995338;28;20057;-60
2021/10/27 06:09:54;;;;;;;12.85;8.55;;;;;;;1.50;100.00;97623.47;5001709;28;20051;-63
2021/10/27 06:12:20;;;;;;;14.75;10.05;;;;;;;1.64;100.00;97623.59;4996384;28;20073;-62
2021/10/27 06:14:45;;;;;;;17.08;10.63;;;;;;;1.82;100.00;97620.16;5003228;28;20093;-62
2021/10/27 06:17:12;;;;;;;15.68;9.75;;;;;;;1.87;100.00;97620.13;4994729;28;20128;-62
2021/10/27 06:19:38;;;;;;;15.18;8.95;;;;;;;1.95;100.00;97620.56;4984205;28;20034;-60
2021/10/27 06:22:03;;;;;;;15.93;10.35;;;;;;;2.00;100.00;97623.19;4995142;28;20053;-62
2021/10/27 06:24:30;;;;;;;15.63;9.85;;;;;;;2.14;100.00;97624.09;4997226;28;20049;-63
2021/10/27 06:26:56;;;;;;;17.10;10.45;;;;;;;2.24;100.00;97626.69;5002527;28;20046;-60
2021/10/27 06:29:27;;;;;;;15.10;9.82;;;;;;;2.34;100.00;97627.66;4995491;28;20127;-61
2021/10/27 06:32:06;;;;;;;17.63;9.55;;;;;;;2.43;100.00;97636.72;5001214;28;20748;-62
2021/10/27 06:34:42;;;;;;;15.27;10.07;;;;;;;2.49;100.00;97641.00;5000206;28;20651;-62
2021/10/27 06:47:44;;;;;;;12.35;8.38;;;;;;;3.34;100.00;97631.06;5000556;28;20052;-59
2021/10/27 06:50:09;;;;;;;16.95;8.95;;;;;;;3.56;100.00;97632.31;4994348;28;20470;-63
2021/10/27 06:52:35;;;;;;;13.05;7.97;;;;;;;3.76;100.00;97637.38;4996694;28;20052;-62
2021/10/27 06:55:02;;;;;;;14.90;8.48;;;;;;;3.82;100.00;97629.97;4997256;28;20053;-63
2021/10/27 06:57:28;;;;;;;13.55;7.53;;;;;;;3.92;100.00;97637.06;4995175;28;20077;-59
2021/10/27 07:00:13;;;;;;;12.90;7.38;;;;;;;4.01;100.00;97630.66;4971486;28;20153;-61
2021/10/27 07:16:24;;;;;;;9.23;5.68;;;;;;;6.48;88.37;97644.59;4994208;28;20049;-62
2021/10/27 07:18:49;;;;;;;10.57;6.40;;;;;;;6.60;88.10;97645.91;5001658;28;20137;-60
2021/10/27 07:21:14;;;;;;;10.52;6.10;;;;;;;6.88;87.20;97647.22;4995549;28;20128;-62
2021/10/27 07:23:40;;;;;;;8.32;5.85;;;;;;;7.22;85.75;97647.53;5001789;28;20041;-61
2021/10/27 07:26:07;;;;;;;9.40;5.60;;;;;;;7.62;83.77;97647.34;4994596;28;20053;-60
2021/10/27 07:28:32;;;;;;;8.07;5.70;;;;;;;7.90;82.24;97645.00;4999386;28;20116;-60
2021/10/27 07:30:59;;;;;;;7.88;4.93;;;;;;;7.88;80.13;97635.56;4995483;28;20220;-62
2021/10/27 07:33:26;;;;;;;6.75;5.28;;;;;;;7.54;83.90;97638.03;4995288;28;20050;-61
2021/10/27 07:36:12;;;;;;;12.18;5.95;;;;;;;7.17;84.83;97634.09;4999489;28;20145;-58
2021/10/27 07:41:21;;;;;;;8.70;6.10;;;;;;;6.64;95.69;97627.81;4992411;28;20138;-62
2021/10/27 07:43:48;;;;;;;9.70;5.22;;;;;;;8.31;87.22;97631.88;4999691;28;20139;-60
2021/10/27 07:46:13;;;;;;;9.25;5.68;;;;;;;9.68;80.23;97621.34;4993855;28;20244;-62
2021/10/27 07:48:39;;;;;;;8.43;5.35;;;;;;;10.74;74.33;97625.19;4999050;28;20042;-60
2021/10/27 07:51:04;;;;;;;8.05;5.47;;;;;;;11.21;71.72;97624.63;4995820;28;20060;-62
2021/10/27 07:53:32;;;;;;;7.45;5.15;;;;;;;11.80;69.29;97622.31;4999077;28;20041;-64
2021/10/27 07:55:58;;;;;;;10.10;6.05;;;;;;;12.00;68.06;97624.03;5000114;28;20046;-64
2021/10/27 07:58:25;;;;;;;10.38;6.10;;;;;;;12.06;68.16;97619.06;4992468;28;20246;-61
2021/10/27 08:00:59;;;;;;;9.05;5.80;;;;;;;11.98;67.66;97615.34;5005205;28;20049;-64
2021/10/27 08:03:29;;;;;;;10.90;6.22;;;;;;;11.83;69.37;97616.91;5002294;28;20499;-63
2021/10/27 08:05:57;;;;;;;7.43;5.63;;;;;;;12.08;68.48;97616.75;5004626;28;20053;-63
2021/10/27 08:08:23;;;;;;;7.50;4.95;;;;;;;12.52;67.42;97616.66;4996958;28;20872;-63
2021/10/27 08:10:50;;;;;;;9.10;5.53;;;;;;;12.78;67.02;97615.28;5007615;28;20048;-62
2021/10/27 08:13:16;;;;;;;10.70;6.35;;;;;;;12.91;66.34;97616.75;4998258;28;20037;-62
2021/10/27 08:15:42;;;;;;;9.30;6.22;;;;;;;12.87;67.04;97615.88;5011859;28;20053;-62
2021/10/27 08:18:16;;;;;;;9.02;5.55;;;;;;;13.35;65.47;97608.25;5000992;28;20046;-62
2021/10/27 08:20:42;;;;;;;10.98;6.45;;;;;;;13.39;66.73;97605.56;4994925;28;20099;-62
2021/10/27 08:23:10;;;;;;;10.48;6.88;;;;;;;14.27;63.41;97613.06;4995032;28;20042;-61
2021/10/27 08:25:49;;;;;;;10.38;6.40;;;;;;;14.05;63.92;97609.16;4999777;28;20034;-62
2021/10/27 08:28:17;;;;;;;10.35;6.85;;;;;;;12.59;69.47;97607.78;4996609;28;20053;-62
2021/10/27 08:35:48;;;;;;;11.15;7.78;;;;;;;13.48;68.81;97600.63;5000463;28;20038;-62
2021/10/27 08:38:13;;;;;;;11.65;7.85;;;;;;;13.50;68.58;97605.78;4995418;28;20185;-62
2021/10/27 08:40:44;;;;;;;12.43;7.95;;;;;;;13.16;67.12;97603.53;5000198;28;20060;-62
2021/10/27 08:43:11;;;;;;;13.32;7.80;;;;;;;12.59;73.08;97602.28;5008447;28;20045;-62
2021/10/27 08:45:37;;;;;;;12.02;7.90;;;;;;;12.31;74.48;97597.72;5015637;28;20398;-62
2021/10/27 08:48:11;;;;;;;12.73;7.95;;;;;;;14.19;67.78;97602.28;4996099;28;20050;-61
2021/10/27 08:50:37;;;;;;;11.15;7.22;;;;;;;15.55;62.56;97608.94;4996556;28;20050;-62
2021/10/27 08:53:03;;;;;;;14.32;7.30;;;;;;;16.19;60.16;97593.03;4988411;28;20039;-59
2021/10/27 08:55:31;;;;;;;13.95;7.75;;;;;;;16.78;57.32;97595.00;4988465;28;20073;-62
2021/10/27 08:57:57;;;;;;;12.13;8.35;;;;;;;17.28;55.81;97587.00;4990772;28;20041;-61
2021/10/27 09:00:30;;;;;;;12.27;7.78;;;;;;;16.71;57.03;97586.66;4982503;28;20624;-62
2021/10/27 10:05:22;;;;;;;17.15;10.43;;;;;;;11.21;86.79;97569.00;4993315;28;21190;-60
2021/10/27 10:07:49;;;;;;;18.23;11.13;;;;;;;11.76;84.69;97566.53;4990639;28;20053;-62
2021/10/27 10:10:15;;;;;;;15.95;9.75;;;;;;;11.83;85.82;97548.28;4986902;28;20151;-63
2021/10/27 10:12:52;;;;;;;14.20;9.70;;;;;;;12.34;82.29;97541.28;5001161;28;20038;-62
2021/10/27 10:15:26;;;;;;;16.13;10.25;;;;;;;11.43;85.63;97556.66;4983364;28;20089;-61
2021/10/27 10:17:53;;;;;;;17.15;10.48;;;;;;;11.67;85.71;97555.72;4995116;28;20042;-60
2021/10/27 10:20:21;;;;;;;17.83;10.63;;;;;;;12.08;83.09;97544.59;4996660;28;20045;-62
2021/10/27 10:22:46;;;;;;;15.95;9.60;;;;;;;12.08;82.74;97552.81;4985154;28;20050;-62
2021/10/27 10:25:14;;;;;;;16.02;9.77;;;;;;;12.05;84.50;97546.09;4976977;28;20034;-62
2021/10/27 10:27:47;;;;;;;17.90;10.43;;;;;;;11.92;85.32;97542.66;4979194;28;20482;-60
2021/10/27 10:30:22;;;;;;;14.68;8.90;;;;;;;12.35;82.13;97532.69;4976780;28;20070;-62
2021/10/27 10:33:02;;;;;;;16.02;9.93;;;;;;;12.39;82.80;97541.00;4996787;28;20061;-61
2021/10/27 11:23:31;;;;;;;9.57;4.40;;;;;;;13.00;72.53;97462.56;4991792;28;20093;-62
2021/10/27 11:26:18;;;;;;;8.85;5.70;;;;;;;13.05;73.72;97473.25;5001004;28;20068;-61
2021/10/27 11:37:35;;;;;;;9.77;6.88;;;;;;;13.11;77.16;97458.06;4993972;28;20045;-62
2021/10/27 11:40:14;;;;;;;14.63;8.57;;;;;;;13.46;76.18;97448.06;4998935;28;20045;-61
2021/10/27 11:42:49;;;;;;;8.93;6.18;;;;;;;13.75;73.32;97444.59;4997008;28;20084;-62
2021/10/27 11:45:23;;;;;;;9.30;6.28;;;;;;;13.41;75.20;97445.63;4991332;28;20049;-62
2021/10/27 11:47:53;;;;;;;11.07;6.93;;;;;;;13.75;76.22;97435.56;4999886;28;20046;-62
2021/10/27 11:50:20;;;;;;;9.93;6.55;;;;;;;14.03;74.66;97434.41;4987434;28;20129;-62
2021/10/27 11:52:50;;;;;;;15.98;7.72;;;;;;;14.24;74.99;97429.22;4999633;28;20065;-63
2021/10/27 11:55:17;;;;;;;11.55;7.68;;;;;;;14.48;73.20;97422.44;4994327;28;20046;-62
2021/10/27 11:57:45;;;;;;;9.07;6.07;;;;;;;15.30;69.61;97419.00;4994879;28;20086;-62
2021/10/27 12:00:32;;;;;;;9.10;6.30;;;;;;;16.19;64.41;97407.06;5003138;28;20049;-61
2021/10/27 12:06:26;;;;;;;10.20;6.22;;;;;;;14.39;73.61;97399.09;5001734;28;20100;-61
2021/10/27 12:19:25;;;;;;;10.38;6.47;;;;;;;14.57;73.57;97391.00;4984377;28;20045;-60
2021/10/27 12:22:02;;;;;;;11.50;5.60;;;;;;;14.47;74.65;97385.00;4990066;28;20038;-60
2021/10/27 12:24:30;;;;;;;9.48;6.65;;;;;;;14.39;73.66;97386.09;4985101;28;20050;-62
2021/10/27 12:27:05;;;;;;;10.25;6.03;;;;;;;14.52;74.41;97376.41;4972232;28;20049;-65
2021/10/27 12:29:32;;;;;;;8.80;5.72;;;;;;;14.59;73.56;97367.47;5005334;28;20109;-62
2021/10/27 12:32:17;;;;;;;8.25;5.45;;;;;;;14.47;72.67;97376.72;4998221;28;20052;-59
2021/10/27 12:34:47;;;;;;;10.70;6.97;;;;;;;14.80;74.45;97371.59;4995883;28;20100;-60
2021/10/27 12:37:27;;;;;;;10.88;5.72;;;;;;;15.98;68.32;97360.75;4985890;28;20045;-61
2021/10/27 12:39:53;;;;;;;10.35;7.05;;;;;;;17.06;64.21;97358.38;4994869;28;20041;-61
2021/10/27 12:42:18;;;;;;;11.88;7.70;;;;;;;17.21;63.89;97351.66;4989392;28;20042;-62
2021/10/27 12:44:46;;;;;;;12.30;6.97;;;;;;;17.17;62.64;97348.91;4993764;28;20042;-61
2021/10/27 12:47:15;;;;;;;10.05;6.60;;;;;;;16.63;64.04;97351.53;4987482;28;20066;-62
2021/10/27 12:49:46;;;;;;;10.98;6.60;;;;;;;16.45;64.97;97356.22;4997194;28;20045;-62
2021/10/27 12:52:28;;;;;;;12.68;6.75;;;;;;;16.51;64.80;97348.34;4971587;28;20388;-62
2021/10/27 12:55:15;;;;;;;13.77;6.22;;;;;;;16.63;65.79;97340.47;4994613;28;20034;-61
2021/10/27 12:58:15;;;;;;;10.40;6.60;;;;;;;16.52;64.87;97339.66;4991507;28;20550;-62
2021/10/27 13:09:13;;;;;;;10.07;5.60;;;;;;;15.37;71.21;97332.72;4983213;28;20045;-63
2021/10/27 13:22:34;;;;;;;9.95;5.90;;;;;;;14.71;70.43;97320.34;4997151;28;20161;-62
2021/10/27 13:30:36;;;;;;;17.58;9.05;;;;;;;14.63;77.47;97309.59;4979854;28;20045;-59
2021/10/27 13:33:07;;;;;;;14.00;9.02;;;;;;;14.70;76.25;97306.91;4980550;28;20402;-63
2021/10/27 13:35:34;;;;;;;14.02;8.48;;;;;;;14.46;77.93;97308.22;4983071;28;20096;-61
2021/10/27 13:38:01;;;;;;;19.60;9.15;;;;;;;14.66;77.32;97303.34;4982296;28;20125;-60
2021/10/27 13:40:27;;;;;;;14.13;8.85;;;;;;;14.62;77.22;97306.06;4980406;28;20042;-57
2021/10/27 13:43:09;;;;;;;13.85;9.32;;;;;;;14.74;75.45;97293.16;4985655;28;20041;-59
2021/10/27 13:45:51;;;;;;;21.38;12.77;;;;;;;14.96;75.58;97292.16;4982367;28;20049;-59
2021/10/27 14:09:56;;;;;;;10.57;6.88;;;;;;;14.52;74.13;97268.91;5001502;28;20851;-60
2021/10/27 14:12:42;;;;;;;12.18;6.03;;;;;;;14.50;71.01;97274.00;5008227;28;20037;-59
2021/10/27 14:47:36;;;;;;;21.58;9.88;;;;;;;13.88;72.27;97249.72;4977622;28;20443;-57
2021/10/27 15:20:33;;;;;;;9.60;6.10;;;;;;;13.12;76.45;97236.06;4995558;28;20092;-59
2021/10/27 15:52:00;;;;;;;;;;;;;;;12.19;81.31;97236.13;4999150;28;20044;-60
2021/10/27 15:54:26;;;;;;;14.60;8.50;;;;;;;12.01;82.71;97241.28;4991188;28;19922;-56
2021/10/27 15:56:52;;;;;;;12.07;7.30;;;;;;;11.95;83.35;97237.22;4993071;28;20034;-56
2021/10/27 15:59:18;;;;;;;13.85;7.60;;;;;;;11.85;84.32;97238.56;4986867;28;20573;-56
2021/10/27 16:01:45;;;;;;;14.70;8.10;;;;;;;11.75;84.82;97246.59;4994639;28;20057;-57
2021/10/27 16:04:11;;;;;;;14.60;8.20;;;;;;;11.67;85.18;97238.22;4983919;28;20050;-56
2021/10/27 16:06:45;;;;;;;16.75;10.60;;;;;;;11.61;85.87;97238.84;4993953;28;20519;-58
2021/10/27 16:09:10;;;;;;;14.23;8.05;;;;;;;11.40;87.04;97239.22;4993803;28;20046;-57
2021/10/27 16:11:37;;;;;;;16.17;9.10;;;;;;;11.32;87.79;97245.69;4980406;28;20507;-60
2021/10/27 16:14:04;;;;;;;15.77;8.32;;;;;;;11.21;88.70;97243.47;5004547;28;20053;-62
2021/10/27 16:16:30;;;;;;;15.27;8.70;;;;;;;11.12;89.10;97245.63;5007366;28;20359;-58
2021/10/27 16:18:56;;;;;;;17.60;9.93;;;;;;;11.18;89.53;97248.88;4998244;28;20049;-60
2021/10/27 16:21:21;;;;;;;18.88;9.13;;;;;;;11.08;89.76;97236.53;4991605;28;20050;-59
2021/10/27 16:23:47;;;;;;;31.90;15.35;;;;;;;10.95;90.85;97230.38;5003903;28;20045;-57
2021/10/27 16:26:13;;;;;;;23.10;11.20;;;;;;;10.92;91.27;97233.03;5004407;28;20049;-60
2021/10/27 16:28:38;;;;;;;18.02;9.93;;;;;;;10.84;91.73;97243.00;4995529;28;20074;-56
2021/10/27 16:31:04;;;;;;;18.70;8.07;;;;;;;10.73;92.46;97239.22;4993067;28;20103;-63
2021/10/27 16:33:31;;;;;;;15.43;9.23;;;;;;;10.65;93.72;97241.00;4989541;28;20585;-59
2021/10/27 16:35:57;;;;;;;17.65;9.80;;;;;;;10.63;94.00;97241.34;4984814;28;20450;-56